Time;durP1;ratioP1;P1;durP2;ratioP2;P2;SDS_P1;SDS_P2;PMS_P1;PMS_P2;Temp;Humidity;BMP_temperature;BMP_pressure;BME280_temperature;BME280_humidity;BME280_pressure;Samples;Min_cycle;Max_cycle;Signal;HPM_P1;HPM_P2
2021/08/20 00:00:08;;;;;;;4.57;2.83;;;20.10;94.60;;;;;;5033971;28;20037;-69
2021/08/20 00:02:34;;;;;;;4.53;3.42;;;20.10;94.70;;;;;;5038309;28;20029;-69
2021/08/20 00:05:00;;;;;;;5.55;3.20;;;20.20;94.70;;;;;;5051023;28;20033;-69
2021/08/20 00:07:25;;;;;;;4.47;3.50;;;20.20;94.70;;;;;;5032925;28;20027;-69
2021/08/20 00:09:56;;;;;;;4.57;3.38;;;20.20;94.80;;;;;;5035979;28;20104;-69
2021/08/20 00:12:21;;;;;;;3.60;2.72;;;20.10;94.80;;;;;;5042411;28;20024;-69
2021/08/20 00:14:47;;;;;;;4.43;3.33;;;20.10;94.80;;;;;;5059859;28;20484;-69
2021/08/20 00:17:13;;;;;;;4.93;3.15;;;20.10;94.80;;;;;;5042014;28;20034;-69
2021/08/20 00:19:38;;;;;;;4.50;3.35;;;20.10;94.90;;;;;;5033888;28;20025;-69
2021/08/20 00:22:05;;;;;;;5.47;3.72;;;20.10;94.90;;;;;;5046398;28;20478;-69
2021/08/20 00:24:31;;;;;;;5.05;3.00;;;20.10;95.00;;;;;;5051966;28;20025;-69
2021/08/20 00:26:57;;;;;;;4.50;3.00;;;20.10;95.00;;;;;;5045707;28;20095;-69
2021/08/20 00:29:22;;;;;;;5.65;2.78;;;20.10;95.00;;;;;;5051625;28;20545;-69
2021/08/20 00:31:48;;;;;;;5.00;3.00;;;20.10;94.90;;;;;;5052155;28;20025;-69
2021/08/20 00:34:13;;;;;;;4.72;2.97;;;20.10;94.90;;;;;;5052021;28;20473;-69
2021/08/20 00:36:39;;;;;;;4.40;3.22;;;20.10;95.00;;;;;;5051291;28;20041;-69
2021/08/20 00:39:04;;;;;;;5.50;3.47;;;20.00;95.10;;;;;;5053499;28;20021;-70
2021/08/20 00:41:31;;;;;;;4.90;2.97;;;20.10;95.10;;;;;;5051038;28;20071;-69
2021/08/20 00:43:57;;;;;;;5.22;3.13;;;20.00;95.10;;;;;;5053182;28;20065;-69
2021/08/20 00:46:22;;;;;;;7.38;3.15;;;20.00;95.10;;;;;;5050954;28;20053;-70
2021/08/20 00:48:48;;;;;;;5.05;3.13;;;20.00;95.10;;;;;;5053240;28;20025;-70
2021/08/20 00:51:20;;;;;;;4.55;2.92;;;20.10;95.20;;;;;;5047741;28;20502;-70
2021/08/20 00:53:47;;;;;;;5.18;3.10;;;20.00;95.20;;;;;;5034505;28;20096;-70
2021/08/20 00:56:13;;;;;;;4.20;3.15;;;20.10;95.30;;;;;;5040797;28;20083;-70
2021/08/20 00:58:39;;;;;;;3.70;2.70;;;20.10;95.30;;;;;;5033181;28;20494;-70
2021/08/20 01:01:05;;;;;;;4.18;3.03;;;20.10;95.20;;;;;;5037758;28;20501;-70
2021/08/20 01:03:32;;;;;;;4.70;2.95;;;20.10;95.30;;;;;;5052834;28;20024;-70
2021/08/20 01:05:59;;;;;;;4.03;2.92;;;20.00;95.30;;;;;;5051435;28;20083;-70
2021/08/20 01:08:29;;;;;;;4.72;3.03;;;20.10;95.30;;;;;;5033785;28;20037;-70
2021/08/20 01:10:56;;;;;;;5.00;3.00;;;20.00;95.30;;;;;;5036263;28;20063;-70
2021/08/20 01:13:23;;;;;;;4.50;3.13;;;20.00;95.40;;;;;;5034983;28;20029;-70
2021/08/20 01:15:49;;;;;;;3.85;2.97;;;20.00;95.40;;;;;;5034886;28;20026;-70
2021/08/20 01:18:22;;;;;;;4.30;2.97;;;20.00;95.40;;;;;;5036576;28;20029;-70
2021/08/20 01:20:48;;;;;;;4.32;2.90;;;20.00;95.50;;;;;;5035210;28;20022;-70
2021/08/20 01:23:14;;;;;;;3.90;2.63;;;20.00;95.50;;;;;;5053038;28;20036;-70
2021/08/20 01:25:39;;;;;;;4.60;3.13;;;20.00;95.60;;;;;;5044148;28;20025;-70
2021/08/20 01:28:08;;;;;;;4.43;3.22;;;20.00;95.60;;;;;;5032692;28;20075;-70
2021/08/20 01:30:35;;;;;;;3.00;2.22;;;20.00;95.60;;;;;;5043423;28;20033;-69
2021/08/20 01:33:00;;;;;;;4.22;2.78;;;20.00;95.60;;;;;;5052451;28;20029;-70
2021/08/20 01:35:26;;;;;;;4.32;2.95;;;19.90;95.50;;;;;;5044186;28;20107;-69
2021/08/20 01:37:51;;;;;;;4.00;2.90;;;20.00;95.40;;;;;;5051906;28;20064;-69
2021/08/20 01:40:17;;;;;;;4.45;2.90;;;19.90;95.30;;;;;;5027490;28;20033;-69
2021/08/20 01:42:42;;;;;;;3.90;2.75;;;20.00;95.30;;;;;;5050871;28;20083;-69
2021/08/20 01:45:08;;;;;;;3.83;2.88;;;19.90;95.20;;;;;;5050750;28;20029;-69
2021/08/20 01:47:33;;;;;;;4.43;2.75;;;19.90;95.20;;;;;;5048373;28;20036;-69
2021/08/20 01:49:59;;;;;;;4.20;3.10;;;19.90;95.10;;;;;;5021311;28;20401;-69
2021/08/20 01:52:24;;;;;;;4.55;2.70;;;19.80;95.10;;;;;;5046919;28;20049;-69
2021/08/20 01:54:50;;;;;;;3.88;2.75;;;19.90;95.10;;;;;;5050524;28;20036;-69
2021/08/20 01:57:15;;;;;;;5.00;3.55;;;19.90;95.10;;;;;;5048869;28;20029;-69
2021/08/20 01:59:42;;;;;;;4.78;3.33;;;19.90;95.10;;;;;;5043200;28;20052;-69
2021/08/20 02:02:08;;;;;;;4.68;3.40;;;19.90;95.00;;;;;;5043914;28;20029;-70
2021/08/20 02:04:33;;;;;;;4.50;3.20;;;19.90;95.00;;;;;;5037263;28;20033;-69
2021/08/20 02:06:59;;;;;;;3.83;2.80;;;19.90;94.90;;;;;;5031891;28;20021;-69
2021/08/20 02:09:24;;;;;;;5.32;3.35;;;19.90;94.90;;;;;;5031789;28;20098;-69
2021/08/20 02:11:50;;;;;;;4.45;3.22;;;19.90;94.90;;;;;;5023026;28;20076;-69
2021/08/20 02:14:17;;;;;;;5.55;2.88;;;19.90;94.90;;;;;;5046962;28;20078;-69
2021/08/20 02:16:42;;;;;;;4.25;2.78;;;19.90;94.90;;;;;;5050072;28;20064;-69
2021/08/20 02:19:08;;;;;;;4.50;2.67;;;19.90;95.00;;;;;;5037530;28;20069;-69
2021/08/20 02:21:34;;;;;;;3.83;2.65;;;19.90;95.00;;;;;;5041125;28;20033;-69
2021/08/20 02:23:59;;;;;;;4.93;2.88;;;19.90;95.10;;;;;;5051162;28;20096;-69
2021/08/20 02:26:25;;;;;;;4.05;2.67;;;19.90;95.10;;;;;;5047542;28;20955;-69
2021/08/20 02:28:50;;;;;;;3.30;2.50;;;19.90;95.20;;;;;;5047531;28;20021;-69
2021/08/20 02:31:16;;;;;;;3.88;2.65;;;19.90;95.20;;;;;;5046747;28;20029;-68
2021/08/20 02:33:45;;;;;;;4.05;2.47;;;19.90;95.30;;;;;;5022144;28;20021;-68
2021/08/20 02:36:11;;;;;;;3.75;2.78;;;19.90;95.30;;;;;;5039591;28;20808;-68
2021/08/20 02:38:38;;;;;;;4.15;2.67;;;19.90;95.40;;;;;;5031166;28;20091;-68
2021/08/20 02:41:03;;;;;;;3.55;2.85;;;19.90;95.40;;;;;;5032443;28;20120;-68
2021/08/20 02:43:29;;;;;;;3.55;2.47;;;19.90;95.50;;;;;;5031455;28;20109;-69
2021/08/20 02:45:56;;;;;;;7.68;2.95;;;19.90;95.50;;;;;;5032944;28;20035;-69
2021/08/20 02:48:22;;;;;;;4.47;3.10;;;20.00;95.60;;;;;;5049743;28;20039;-69
2021/08/20 02:50:48;;;;;;;4.03;2.90;;;19.90;95.50;;;;;;5049431;28;20485;-69
2021/08/20 02:53:13;;;;;;;3.63;2.70;;;19.90;95.50;;;;;;5033041;28;20085;-69
2021/08/20 02:55:39;;;;;;;5.32;2.60;;;19.90;95.50;;;;;;5037555;28;20028;-69
2021/08/20 02:58:05;;;;;;;5.68;2.88;;;19.90;95.50;;;;;;5050146;28;20037;-69
2021/08/20 03:00:31;;;;;;;3.88;2.65;;;20.00;95.50;;;;;;5051513;28;20056;-69
2021/08/20 03:02:56;;;;;;;4.22;2.90;;;19.90;95.50;;;;;;5029405;28;20033;-69
2021/08/20 03:05:22;;;;;;;5.07;3.08;;;20.00;95.50;;;;;;5031494;28;20458;-69
2021/08/20 03:07:48;;;;;;;3.83;3.05;;;19.90;95.50;;;;;;5047413;28;20029;-69
2021/08/20 03:10:13;;;;;;;5.75;3.13;;;19.80;95.50;;;;;;5031753;28;20025;-69
2021/08/20 03:12:39;;;;;;;4.53;3.25;;;19.90;95.50;;;;;;5047304;28;20392;-69
2021/08/20 03:15:05;;;;;;;4.78;3.13;;;19.90;95.50;;;;;;5049066;28;20108;-69
2021/08/20 03:17:31;;;;;;;4.78;3.17;;;19.90;95.50;;;;;;5049463;28;20033;-69
2021/08/20 03:19:56;;;;;;;5.00;3.25;;;19.90;95.60;;;;;;5034996;28;20087;-69
2021/08/20 03:22:22;;;;;;;6.22;3.42;;;19.90;95.60;;;;;;5038249;28;20082;-69
2021/08/20 03:24:47;;;;;;;6.45;3.72;;;19.90;95.60;;;;;;5033788;28;20029;-69
2021/08/20 03:27:13;;;;;;;4.63;3.53;;;19.80;95.60;;;;;;5035197;28;20025;-68
2021/08/20 03:29:38;;;;;;;4.53;2.80;;;19.80;95.70;;;;;;5035820;28;20028;-69
2021/08/20 03:32:04;;;;;;;5.93;4.32;;;19.80;95.70;;;;;;5039545;28;20022;-69
2021/08/20 03:34:30;;;;;;;5.95;3.50;;;19.80;95.70;;;;;;5034785;28;20029;-69
2021/08/20 03:36:56;;;;;;;5.65;3.17;;;19.80;95.80;;;;;;5028302;28;20039;-69
2021/08/20 03:39:22;;;;;;;5.82;3.45;;;19.80;95.70;;;;;;5054591;28;20055;-69
2021/08/20 03:41:48;;;;;;;5.13;3.38;;;19.80;95.80;;;;;;5051312;28;20041;-68
2021/08/20 03:44:14;;;;;;;4.90;3.05;;;19.80;95.80;;;;;;5036866;28;20442;-68
2021/08/20 03:46:40;;;;;;;5.22;3.42;;;19.80;95.80;;;;;;5052620;28;20040;-68
2021/08/20 03:49:05;;;;;;;7.00;4.10;;;19.90;95.80;;;;;;5052933;28;20021;-68
2021/08/20 03:51:32;;;;;;;5.75;4.25;;;19.90;95.80;;;;;;5040282;28;20139;-68
2021/08/20 03:53:57;;;;;;;5.32;4.13;;;19.90;95.70;;;;;;5036498;28;20040;-68
2021/08/20 03:56:22;;;;;;;6.50;3.85;;;19.90;95.70;;;;;;5051905;28;20033;-68
2021/08/20 03:58:48;;;;;;;5.07;3.63;;;20.00;95.90;;;;;;5054205;28;20108;-68
2021/08/20 04:01:13;;;;;;;7.50;3.53;;;19.90;95.70;;;;;;5049420;28;20481;-68
2021/08/20 04:03:39;;;;;;;5.20;3.47;;;19.90;95.70;;;;;;5044415;28;20037;-68
2021/08/20 04:06:09;;;;;;;5.32;3.45;;;19.90;95.60;;;;;;5036923;28;20464;-68
2021/08/20 04:08:34;;;;;;;5.32;3.40;;;19.90;95.80;;;;;;5054072;28;20128;-68
2021/08/20 04:11:00;;;;;;;4.53;3.38;;;19.90;95.60;;;;;;5041484;28;20025;-68
2021/08/20 04:13:25;;;;;;;4.38;3.63;;;19.90;95.50;;;;;;5051070;28;20017;-68
2021/08/20 04:15:51;;;;;;;5.38;3.40;;;19.90;95.50;;;;;;5052217;28;20430;-68
2021/08/20 04:18:16;;;;;;;4.82;3.15;;;19.90;95.60;;;;;;5053886;28;20287;-68
2021/08/20 04:20:42;;;;;;;7.75;4.07;;;19.90;95.60;;;;;;5051259;28;20489;-68
2021/08/20 04:23:08;;;;;;;5.15;4.00;;;19.90;95.50;;;;;;5035807;28;20039;-68
2021/08/20 04:25:34;;;;;;;6.63;3.83;;;19.90;95.50;;;;;;5037701;28;20105;-68
2021/08/20 04:28:00;;;;;;;6.78;3.55;;;19.90;95.50;;;;;;5053255;28;20136;-68
2021/08/20 04:30:29;;;;;;;5.68;3.50;;;19.90;95.40;;;;;;5050477;28;20033;-68
2021/08/20 04:32:56;;;;;;;6.60;3.97;;;19.90;95.40;;;;;;5039999;28;20029;-68
2021/08/20 04:35:22;;;;;;;7.28;4.28;;;19.90;95.30;;;;;;5033084;28;20134;-68
2021/08/20 04:37:47;;;;;;;8.32;4.60;;;19.90;95.10;;;;;;5032463;28;20409;-68
2021/08/20 04:40:13;;;;;;;6.45;4.63;;;19.90;95.10;;;;;;5053534;28;20033;-68
2021/08/20 04:42:39;;;;;;;6.38;4.35;;;19.90;95.10;;;;;;5042581;28;20179;-68
2021/08/20 04:45:05;;;;;;;6.43;4.22;;;19.80;95.30;;;;;;5033344;28;20056;-69
2021/08/20 04:47:31;;;;;;;7.25;4.78;;;19.80;95.40;;;;;;5049107;28;20053;-69
2021/08/20 04:49:57;;;;;;;10.98;4.45;;;19.80;95.50;;;;;;5034354;28;20129;-69
2021/08/20 04:52:22;;;;;;;6.28;4.30;;;19.80;95.60;;;;;;5052407;28;20021;-70
2021/08/20 04:54:48;;;;;;;7.90;4.00;;;19.80;95.60;;;;;;5049483;28;20029;-69
2021/08/20 04:57:13;;;;;;;7.00;4.60;;;19.80;95.70;;;;;;5045367;28;20401;-69
2021/08/20 04:59:39;;;;;;;6.57;4.47;;;19.80;95.80;;;;;;5046112;28;20354;-69
2021/08/20 05:02:05;;;;;;;7.25;5.07;;;19.70;95.80;;;;;;5034000;28;20044;-69
2021/08/20 05:04:34;;;;;;;7.78;4.22;;;19.70;95.90;;;;;;5038464;28;20029;-69
2021/08/20 05:06:59;;;;;;;6.72;4.35;;;19.70;96.00;;;;;;5042484;28;20021;-69
2021/08/20 05:09:26;;;;;;;7.78;4.63;;;19.70;96.00;;;;;;5053034;28;20488;-69
2021/08/20 05:11:52;;;;;;;9.23;4.90;;;19.70;96.10;;;;;;5042166;28;20101;-69
2021/08/20 05:14:17;;;;;;;6.00;4.38;;;19.70;96.10;;;;;;5033127;28;20468;-69
2021/08/20 05:16:44;;;;;;;7.70;5.35;;;19.70;96.20;;;;;;5027240;28;20128;-69
2021/08/20 05:19:10;;;;;;;9.55;5.70;;;19.70;96.20;;;;;;5053664;28;20044;-68
2021/08/20 05:21:35;;;;;;;7.72;5.55;;;19.60;96.30;;;;;;5046052;28;20053;-65
2021/08/20 05:24:01;;;;;;;10.30;5.47;;;19.70;96.30;;;;;;5014489;28;20051;-65
2021/08/20 05:26:26;;;;;;;6.75;5.38;;;19.60;96.30;;;;;;5034601;28;20041;-64
2021/08/20 05:28:52;;;;;;;7.13;5.10;;;19.60;96.30;;;;;;5045531;28;20029;-64
2021/08/20 05:31:18;;;;;;;6.95;4.72;;;19.60;96.40;;;;;;5039065;28;20021;-64
2021/08/20 05:33:43;;;;;;;8.10;5.15;;;19.60;96.40;;;;;;5044074;28;20024;-64
2021/08/20 05:36:09;;;;;;;8.70;5.03;;;19.60;96.50;;;;;;5032109;28;20037;-64
2021/08/20 05:38:35;;;;;;;8.52;5.03;;;19.60;96.50;;;;;;5034738;28;20323;-64
2021/08/20 05:41:00;;;;;;;6.68;5.03;;;19.60;96.50;;;;;;5039591;28;20028;-64
2021/08/20 05:43:26;;;;;;;9.10;5.72;;;19.60;96.50;;;;;;5049430;28;20052;-65
2021/08/20 05:45:52;;;;;;;8.93;5.32;;;19.60;96.50;;;;;;5041986;28;20033;-65
2021/08/20 05:48:17;;;;;;;10.00;5.22;;;19.60;96.60;;;;;;5038683;28;20448;-65
2021/08/20 05:50:43;;;;;;;8.23;5.55;;;19.60;96.60;;;;;;5038665;28;20037;-65
2021/08/20 05:53:09;;;;;;;8.95;4.65;;;19.60;96.60;;;;;;5043065;28;20027;-65
2021/08/20 05:55:35;;;;;;;7.22;4.93;;;19.60;96.70;;;;;;5037373;28;20167;-65
2021/08/20 05:58:00;;;;;;;8.43;5.60;;;19.70;96.80;;;;;;5035784;28;20112;-65
2021/08/20 06:00:26;;;;;;;8.48;5.40;;;19.70;96.80;;;;;;5030713;28;20110;-65
2021/08/20 06:02:51;;;;;;;7.13;5.35;;;19.70;96.90;;;;;;5034878;28;20033;-65
2021/08/20 06:05:17;;;;;;;8.77;4.90;;;19.80;96.90;;;;;;5036747;28;20021;-66
2021/08/20 06:07:42;;;;;;;10.68;5.30;;;19.80;96.90;;;;;;5036212;28;20112;-65
2021/08/20 06:10:09;;;;;;;8.55;5.97;;;19.80;96.90;;;;;;5034188;28;20103;-65
2021/08/20 06:12:35;;;;;;;8.07;6.00;;;19.90;97.00;;;;;;5041044;28;20049;-66
2021/08/20 06:15:00;;;;;;;9.10;6.53;;;19.90;97.10;;;;;;5043170;28;20017;-65
2021/08/20 06:17:26;;;;;;;8.18;6.18;;;20.00;97.10;;;;;;5035497;28;20091;-65
2021/08/20 06:19:51;;;;;;;7.82;4.70;;;20.00;97.10;;;;;;5019364;28;20394;-65
2021/08/20 06:22:17;;;;;;;10.20;6.30;;;20.10;97.20;;;;;;5035629;28;20193;-65
2021/08/20 06:24:43;;;;;;;9.27;5.95;;;20.20;97.20;;;;;;5037566;28;20039;-65
2021/08/20 06:27:08;;;;;;;10.10;6.43;;;20.30;97.20;;;;;;5038663;28;20489;-65
2021/08/20 06:29:34;;;;;;;9.68;7.30;;;20.30;97.20;;;;;;5034719;28;20029;-65
2021/08/20 06:31:59;;;;;;;11.73;7.70;;;20.40;97.10;;;;;;5026362;28;20036;-64
2021/08/20 06:34:25;;;;;;;11.63;8.13;;;20.40;97.10;;;;;;5036143;28;20450;-65
2021/08/20 06:36:50;;;;;;;9.82;7.13;;;20.50;97.00;;;;;;5029379;28;20101;-65
2021/08/20 06:39:16;;;;;;;10.25;7.38;;;20.50;97.00;;;;;;5031766;28;20107;-65
2021/08/20 06:41:42;;;;;;;11.65;7.38;;;20.60;97.00;;;;;;5045701;28;20074;-65
2021/08/20 06:44:08;;;;;;;11.70;9.32;;;20.70;96.80;;;;;;5017266;28;20108;-66
2021/08/20 06:46:35;;;;;;;14.27;8.15;;;20.70;96.70;;;;;;5042058;28;20029;-65
2021/08/20 06:49:00;;;;;;;12.43;8.45;;;20.80;96.50;;;;;;5037564;28;20528;-68
2021/08/20 06:51:26;;;;;;;13.07;9.30;;;20.90;96.50;;;;;;5042759;28;20053;-66
2021/08/20 06:53:52;;;;;;;13.85;10.10;;;21.00;96.50;;;;;;5035164;28;20025;-65
2021/08/20 06:56:17;;;;;;;14.20;10.00;;;21.10;96.50;;;;;;5042355;28;20033;-65
2021/08/20 06:58:43;;;;;;;15.02;9.77;;;21.20;96.20;;;;;;5029994;28;20248;-66
2021/08/20 07:01:08;;;;;;;14.15;10.48;;;21.20;96.20;;;;;;5041108;28;20025;-66
2021/08/20 07:03:33;;;;;;;14.07;10.60;;;21.30;96.00;;;;;;5042576;28;20116;-67
2021/08/20 07:05:59;;;;;;;13.07;11.10;;;21.30;95.90;;;;;;5043184;28;20483;-67
2021/08/20 07:08:24;;;;;;;14.50;10.80;;;21.40;95.80;;;;;;5049084;28;20087;-67
2021/08/20 07:10:50;;;;;;;14.20;11.23;;;21.40;95.50;;;;;;5038750;28;20024;-67
2021/08/20 07:13:15;;;;;;;14.38;11.32;;;21.40;95.00;;;;;;5042622;28;20029;-67
2021/08/20 07:15:41;;;;;;;15.27;11.07;;;21.40;94.80;;;;;;5039363;28;20037;-66
2021/08/20 07:18:10;;;;;;;13.00;10.25;;;21.50;94.60;;;;;;5041646;28;20031;-66
2021/08/20 07:20:35;;;;;;;15.05;10.85;;;21.40;94.20;;;;;;5045267;28;20033;-66
2021/08/20 07:23:01;;;;;;;13.68;10.77;;;21.50;94.10;;;;;;5044467;28;20504;-66
2021/08/20 07:25:26;;;;;;;16.58;9.73;;;21.50;94.10;;;;;;5044364;28;20091;-66
2021/08/20 07:27:53;;;;;;;13.52;8.95;;;21.50;93.80;;;;;;5038949;28;20039;-67
2021/08/20 07:30:18;;;;;;;13.63;10.27;;;21.50;93.70;;;;;;5039312;28;20037;-66
2021/08/20 07:32:45;;;;;;;12.95;9.70;;;21.60;93.30;;;;;;5038241;28;20021;-67
2021/08/20 07:35:11;;;;;;;16.23;11.23;;;21.70;93.50;;;;;;5037628;28;20540;-66
2021/08/20 07:37:39;;;;;;;14.35;10.10;;;21.70;93.30;;;;;;5039473;28;20036;-66
2021/08/20 07:40:06;;;;;;;13.52;10.00;;;21.70;93.20;;;;;;5038094;28;20370;-66
2021/08/20 07:42:31;;;;;;;13.18;9.43;;;21.70;92.80;;;;;;5039308;28;20043;-67
2021/08/20 07:45:01;;;;;;;12.55;10.27;;;21.70;92.70;;;;;;5036666;28;20056;-66
2021/08/20 07:47:26;;;;;;;12.38;9.00;;;21.70;92.60;;;;;;5041281;28;20029;-68
2021/08/20 07:49:52;;;;;;;12.20;10.27;;;21.70;92.50;;;;;;5044518;28;20033;-67
2021/08/20 07:52:17;;;;;;;15.15;10.27;;;21.70;92.40;;;;;;5027798;28;20389;-67
2021/08/20 07:54:43;;;;;;;14.65;9.77;;;21.70;92.00;;;;;;5048164;28;20389;-67
2021/08/20 07:57:08;;;;;;;13.68;10.38;;;21.70;92.00;;;;;;5044529;28;20159;-67
2021/08/20 07:59:34;;;;;;;13.70;9.90;;;21.70;91.90;;;;;;5048482;28;20052;-67
2021/08/20 08:02:00;;;;;;;8.60;6.95;;;21.60;91.80;;;;;;5041722;28;20033;-67
2021/08/20 08:04:25;;;;;;;9.48;6.70;;;21.50;91.60;;;;;;5045582;28;20028;-66
2021/08/20 08:06:51;;;;;;;9.40;6.20;;;21.40;91.80;;;;;;5046720;28;20043;-66
2021/08/20 08:09:16;;;;;;;7.60;5.93;;;21.30;92.00;;;;;;5049119;28;20036;-67
2021/08/20 08:11:42;;;;;;;8.25;6.00;;;21.20;92.10;;;;;;5045257;28;20116;-67
2021/08/20 08:14:07;;;;;;;8.75;5.68;;;21.10;92.10;;;;;;5044008;28;20116;-71
2021/08/20 08:16:37;;;;;;;7.63;5.10;;;21.10;92.00;;;;;;5043161;28;20422;-70
2021/08/20 08:19:08;;;;;;;6.70;5.20;;;21.00;91.90;;;;;;5019823;28;20029;-70
2021/08/20 08:21:34;;;;;;;9.13;5.70;;;20.90;91.80;;;;;;5023343;28;20041;-70
2021/08/20 08:23:59;;;;;;;7.80;4.63;;;20.90;91.80;;;;;;5039696;28;20366;-70
2021/08/20 08:26:26;;;;;;;6.93;4.47;;;20.90;91.90;;;;;;5045145;28;20028;-70
2021/08/20 08:28:55;;;;;;;8.02;4.82;;;20.90;91.90;;;;;;5045426;28;20053;-69
2021/08/20 08:31:22;;;;;;;7.00;4.60;;;20.90;91.80;;;;;;5039938;28;20163;-70
2021/08/20 08:33:47;;;;;;;5.80;4.50;;;20.90;91.60;;;;;;5040740;28;20571;-70
2021/08/20 08:36:13;;;;;;;7.28;5.18;;;20.80;91.50;;;;;;5041198;28;20060;-70
2021/08/20 08:38:39;;;;;;;9.18;5.55;;;20.80;91.60;;;;;;5033257;28;20035;-70
2021/08/20 08:41:04;;;;;;;8.60;5.78;;;20.80;91.60;;;;;;5042824;28;20382;-70
2021/08/20 08:43:30;;;;;;;7.72;5.82;;;20.70;91.70;;;;;;5044598;28;20032;-70
2021/08/20 08:46:00;;;;;;;7.40;6.30;;;20.70;91.70;;;;;;5033616;28;20030;-70
2021/08/20 08:48:26;;;;;;;8.52;5.53;;;20.70;91.80;;;;;;5038630;28;20048;-70
2021/08/20 08:50:52;;;;;;;10.00;5.90;;;20.60;91.80;;;;;;5036409;28;20490;-70
2021/08/20 08:53:18;;;;;;;10.93;6.47;;;20.70;91.90;;;;;;5045691;28;20079;-70
2021/08/20 08:55:49;;;;;;;9.32;6.70;;;20.60;91.80;;;;;;5061955;28;20102;-70
2021/08/20 08:58:14;;;;;;;9.10;6.90;;;20.60;91.90;;;;;;5049462;28;20033;-70
2021/08/20 09:00:40;;;;;;;9.75;6.80;;;20.60;92.00;;;;;;5032869;28;20025;-70
2021/08/20 09:03:05;;;;;;;10.10;6.57;;;20.60;92.10;;;;;;5033100;28;20463;-70
2021/08/20 09:05:43;;;;;;;10.05;7.13;;;20.60;92.30;;;;;;5039776;28;20525;-70
2021/08/20 09:08:12;;;;;;;8.45;6.40;;;20.60;92.40;;;;;;5045697;28;20123;-70
2021/08/20 09:10:50;;;;;;;10.52;7.32;;;20.70;92.40;;;;;;5044058;28;20485;-70
2021/08/20 09:13:19;;;;;;;11.55;6.95;;;20.70;92.50;;;;;;5045359;28;20032;-70
2021/08/20 09:15:45;;;;;;;9.60;7.68;;;20.70;92.50;;;;;;5045922;28;20029;-70
2021/08/20 09:18:21;;;;;;;11.80;6.80;;;20.80;92.50;;;;;;5048202;28;20390;-70
2021/08/20 09:20:47;;;;;;;10.07;7.40;;;20.80;92.50;;;;;;5035010;28;20095;-70
2021/08/20 09:23:22;;;;;;;9.25;7.00;;;20.90;92.50;;;;;;5033368;28;20040;-69
2021/08/20 09:25:49;;;;;;;9.80;7.18;;;20.90;92.50;;;;;;5032857;28;20057;-69
2021/08/20 09:28:26;;;;;;;8.27;6.72;;;21.00;92.30;;;;;;5039367;28;20111;-70
2021/08/20 09:30:55;;;;;;;8.95;6.50;;;21.00;92.20;;;;;;5048942;28;20358;-70
2021/08/20 09:33:41;;;;;;;7.55;5.13;;;21.00;92.00;;;;;;5054699;28;20094;-70
2021/08/20 09:36:09;;;;;;;7.70;5.65;;;21.00;91.90;;;;;;5049742;28;20049;-70
2021/08/20 09:38:42;;;;;;;8.50;5.75;;;21.00;91.80;;;;;;5048843;28;20118;-70
2021/08/20 09:41:11;;;;;;;7.47;5.13;;;21.00;91.70;;;;;;5027218;28;20101;-71
2021/08/20 09:43:40;;;;;;;10.32;6.10;;;21.10;91.80;;;;;;5048346;28;20511;-70
2021/08/20 09:46:18;;;;;;;7.75;5.60;;;21.10;91.70;;;;;;5046752;28;20026;-70
2021/08/20 09:49:01;;;;;;;7.38;5.80;;;21.10;91.70;;;;;;5037967;28;20815;-70
2021/08/20 09:51:32;;;;;;;6.82;4.95;;;21.20;91.60;;;;;;5030868;28;20136;-70
2021/08/20 09:54:00;;;;;;;10.23;5.60;;;21.20;91.70;;;;;;5053919;28;20389;-71
2021/08/20 09:56:26;;;;;;;7.50;5.45;;;21.30;91.60;;;;;;5042974;28;20072;-67
2021/08/20 09:58:54;;;;;;;15.65;5.03;;;21.40;91.40;;;;;;5049521;28;20025;-67
2021/08/20 10:01:21;;;;;;;8.48;4.53;;;21.40;91.30;;;;;;5032563;28;20436;-67
2021/08/20 10:03:46;;;;;;;6.85;4.93;;;21.40;91.30;;;;;;5060949;28;20087;-67
2021/08/20 10:06:14;;;;;;;7.28;5.25;;;21.50;91.30;;;;;;5050758;28;20025;-67
2021/08/20 10:08:40;;;;;;;8.63;4.95;;;21.60;91.10;;;;;;5031342;28;20037;-67
2021/08/20 10:11:07;;;;;;;7.03;4.90;;;21.70;91.00;;;;;;5042257;28;20021;-66
2021/08/20 10:13:32;;;;;;;8.25;4.22;;;21.80;91.20;;;;;;5033189;28;20025;-66
2021/08/20 10:16:00;;;;;;;7.43;4.32;;;21.90;90.80;;;;;;5050523;28;20027;-64
2021/08/20 10:18:25;;;;;;;6.38;4.10;;;21.90;90.90;;;;;;5047555;28;20445;-67
2021/08/20 10:20:51;;;;;;;5.55;3.97;;;22.00;90.70;;;;;;5032012;28;20028;-65
2021/08/20 10:23:17;;;;;;;5.55;3.80;;;22.00;90.50;;;;;;5027766;28;20041;-67
2021/08/20 10:25:43;;;;;;;6.88;3.97;;;22.10;90.20;;;;;;5029906;28;20033;-67
2021/08/20 10:28:13;;;;;;;6.20;4.13;;;22.10;90.20;;;;;;5038309;28;20018;-67
2021/08/20 10:30:41;;;;;;;7.22;4.10;;;22.20;90.10;;;;;;5038266;28;20033;-67
2021/08/20 10:33:07;;;;;;;6.93;4.05;;;22.20;90.10;;;;;;5039290;28;20033;-68
2021/08/20 10:35:55;;;;;;;7.00;4.32;;;22.40;89.80;;;;;;5038808;28;20033;-67
2021/08/20 10:38:25;;;;;;;6.93;4.15;;;22.50;89.90;;;;;;5037867;28;20588;-68
2021/08/20 10:41:08;;;;;;;9.00;4.90;;;22.60;89.40;;;;;;5044321;28;20032;-65
2021/08/20 10:43:55;;;;;;;6.35;3.88;;;22.60;88.90;;;;;;5043648;28;20559;-67
2021/08/20 10:46:32;;;;;;;9.70;4.55;;;22.70;88.40;;;;;;5036739;28;20039;-67
2021/08/20 10:51:51;;;;;;;7.28;4.13;;;22.70;87.40;;;;;;5033113;28;20121;-67
2021/08/20 10:54:19;;;;;;;5.07;3.85;;;22.80;86.80;;;;;;5035969;28;20037;-67
2021/08/20 10:56:44;;;;;;;5.70;4.28;;;22.80;86.50;;;;;;5041456;28;20500;-67
2021/08/20 10:59:36;;;;;;;7.88;4.43;;;22.80;86.60;;;;;;5037232;28;20022;-67
2021/08/20 11:02:19;;;;;;;5.47;3.95;;;22.80;84.90;;;;;;5038144;28;20029;-68
2021/08/20 11:05:01;;;;;;;6.63;3.65;;;22.80;84.90;;;;;;5032861;28;20025;-68
2021/08/20 11:07:39;;;;;;;5.18;3.72;;;22.80;85.00;;;;;;5036597;28;20386;-67
2021/08/20 11:10:08;;;;;;;6.13;4.25;;;22.90;83.70;;;;;;5041773;28;20025;-67
2021/08/20 11:12:49;;;;;;;6.47;4.38;;;22.90;83.50;;;;;;5034965;28;20095;-68
2021/08/20 11:15:20;;;;;;;6.65;3.20;;;23.00;83.80;;;;;;5034851;28;20028;-68
2021/08/20 11:17:57;;;;;;;8.07;4.35;;;23.10;82.80;;;;;;5040185;28;20041;-67
2021/08/20 11:20:28;;;;;;;6.13;3.72;;;23.10;81.70;;;;;;5039135;28;20033;-67
2021/08/20 11:23:12;;;;;;;4.38;3.40;;;23.00;81.10;;;;;;5033896;28;20513;-67
2021/08/20 11:25:43;;;;;;;4.43;3.17;;;23.00;81.40;;;;;;5040185;28;20036;-67
2021/08/20 11:28:39;;;;;;;4.75;3.58;;;22.90;80.50;;;;;;5041354;28;20344;-67
2021/08/20 11:31:14;;;;;;;4.85;3.20;;;23.00;79.80;;;;;;5038549;28;20130;-67
2021/08/20 11:33:47;;;;;;;7.70;3.60;;;23.00;79.90;;;;;;5029322;28;20029;-67
2021/08/20 11:36:21;;;;;;;5.30;3.60;;;23.10;79.90;;;;;;5033923;28;20437;-68
2021/08/20 11:38:52;;;;;;;6.83;3.57;;;23.20;79.90;;;;;;5035474;28;20462;-67
2021/08/20 11:41:29;;;;;;;4.32;3.30;;;23.30;79.80;;;;;;5046827;28;20025;-67
2021/08/20 11:43:57;;;;;;;3.97;3.35;;;23.40;78.70;;;;;;5034101;28;20068;-67
2021/08/20 11:46:25;;;;;;;6.70;3.45;;;23.40;78.30;;;;;;5039312;28;20029;-67
2021/08/20 11:48:53;;;;;;;5.72;4.00;;;23.40;77.80;;;;;;5036308;28;20027;-67
2021/08/20 11:51:28;;;;;;;6.07;4.30;;;23.40;78.00;;;;;;5044588;28;20048;-68
2021/08/20 11:53:58;;;;;;;7.70;4.97;;;23.60;78.10;;;;;;5051508;28;20476;-68
2021/08/20 11:56:24;;;;;;;5.57;4.30;;;23.60;76.10;;;;;;5038546;28;20029;-68
2021/08/20 11:58:50;;;;;;;4.53;3.50;;;23.60;77.50;;;;;;5039344;28;20044;-67
2021/08/20 12:01:27;;;;;;;4.97;3.65;;;23.60;77.20;;;;;;5043690;28;22413;-68
2021/08/20 12:03:56;;;;;;;7.00;4.90;;;23.50;77.30;;;;;;5044164;28;20061;-68
2021/08/20 12:06:22;;;;;;;7.60;4.50;;;23.50;76.20;;;;;;5041142;28;20021;-68
2021/08/20 12:08:48;;;;;;;5.35;4.00;;;23.40;75.90;;;;;;5042172;28;20030;-67
2021/08/20 12:11:20;;;;;;;5.30;4.00;;;23.40;76.20;;;;;;5042997;28;20060;-67
2021/08/20 12:13:54;;;;;;;4.50;3.63;;;23.30;76.50;;;;;;5048814;28;20375;-67
2021/08/20 12:16:36;;;;;;;;;;;23.30;76.30;;;;;;5044463;28;20025;-67
2021/08/20 12:19:13;;;;;;;5.15;4.03;;;23.20;76.60;;;;;;5041040;28;19909;-67
2021/08/20 12:21:38;;;;;;;6.60;4.13;;;23.10;76.80;;;;;;5047622;28;20033;-67
2021/08/20 12:24:08;;;;;;;5.20;4.47;;;23.00;77.20;;;;;;5040413;28;20024;-67
2021/08/20 12:26:33;;;;;;;6.00;4.40;;;23.00;77.40;;;;;;5044982;28;20216;-67
2021/08/20 12:29:12;;;;;;;6.85;5.30;;;23.00;77.50;;;;;;5034354;28;20199;-67
2021/08/20 12:31:38;;;;;;;6.75;4.82;;;22.90;77.70;;;;;;5041644;28;20079;-67
2021/08/20 12:34:05;;;;;;;6.00;5.00;;;22.90;78.00;;;;;;5036273;28;20021;-66
2021/08/20 12:36:31;;;;;;;6.47;5.05;;;22.90;78.10;;;;;;5044125;28;20037;-68
2021/08/20 12:39:08;;;;;;;7.13;5.13;;;22.90;77.90;;;;;;5035102;28;20036;-67
2021/08/20 12:41:33;;;;;;;9.00;5.65;;;22.90;78.20;;;;;;5048228;28;20033;-66
2021/08/20 12:43:59;;;;;;;9.27;5.72;;;22.80;78.50;;;;;;5035589;28;20024;-67
2021/08/20 12:46:42;;;;;;;8.05;6.05;;;22.80;78.70;;;;;;5036592;28;20446;-67
2021/08/20 12:49:08;;;;;;;10.60;6.03;;;22.90;78.60;;;;;;5035518;28;20025;-66